createdAt,value
2022-10-03T00:00:22.565Z,28.30
2022-10-03T00:03:18.227Z,28.30
2022-10-03T00:06:03.615Z,28.20
2022-10-03T00:09:10.285Z,28.10
2022-10-03T00:11:54.718Z,28.00
2022-10-03T00:15:04.069Z,28.10
2022-10-03T00:17:55.248Z,28.10
2022-10-03T00:20:35.892Z,28.00
2022-10-03T00:23:08.353Z,28.00
2022-10-03T00:25:59.153Z,28.00
2022-10-03T00:28:51.391Z,27.90
2022-10-03T00:31:26.449Z,27.90
2022-10-03T00:34:36.236Z,27.90
2022-10-03T00:37:19.648Z,27.80
2022-10-03T00:40:06.464Z,27.80
2022-10-03T00:43:05.878Z,27.80
2022-10-03T00:45:56.510Z,27.70
2022-10-03T00:48:40.222Z,27.70
2022-10-03T00:51:33.759Z,27.70
2022-10-03T00:54:36.625Z,27.70
2022-10-03T00:57:21.361Z,27.60
2022-10-03T01:00:22.242Z,27.60
2022-10-03T01:02:53.677Z,27.60
2022-10-03T01:05:47.371Z,27.50
2022-10-03T01:08:34.072Z,27.40
2022-10-03T01:11:37.029Z,27.30
2022-10-03T01:14:46.461Z,27.10
2022-10-03T01:17:50.237Z,27.00
2022-10-03T01:20:23.552Z,26.90
2022-10-03T01:23:01.034Z,26.70
2022-10-03T01:25:59.194Z,26.60
2022-10-03T01:29:07.099Z,26.50
2022-10-03T01:32:10.874Z,26.20
2022-10-03T01:35:08.605Z,26.20
2022-10-03T01:37:57.321Z,26.20
2022-10-03T01:40:56.947Z,26.00
2022-10-03T01:43:51.174Z,25.80
2022-10-03T01:46:19.541Z,25.60
2022-10-03T01:49:29.974Z,25.60
2022-10-03T01:52:27.084Z,25.50
2022-10-03T01:55:02.291Z,25.50
2022-10-03T01:58:15.816Z,25.40
2022-10-03T02:01:00.799Z,25.10
2022-10-03T02:03:56.152Z,24.70
2022-10-03T02:06:41.326Z,24.50
2022-10-03T02:09:35.613Z,24.50
2022-10-03T02:12:15.617Z,24.40
2022-10-03T02:15:07.183Z,24.20
2022-10-03T02:17:58.853Z,24.10
2022-10-03T02:20:55.070Z,23.90
2022-10-03T02:23:40.821Z,23.80
2022-10-03T02:26:24.610Z,23.60
2022-10-03T02:29:19.525Z,23.50
2022-10-03T02:31:57.955Z,23.50
2022-10-03T02:34:57.409Z,23.30
2022-10-03T02:37:37.507Z,23.30
2022-10-03T02:40:24.310Z,23.00
2022-10-03T02:43:21.100Z,22.80
2022-10-03T02:46:24.229Z,22.70
2022-10-03T02:49:13.866Z,22.50
2022-10-03T02:52:03.388Z,22.50
2022-10-03T02:54:34.708Z,22.40
2022-10-03T02:57:24.423Z,22.30
2022-10-03T03:00:07.896Z,22.20
2022-10-03T03:02:51.474Z,22.00
2022-10-03T03:06:05.613Z,22.00
2022-10-03T03:08:59.074Z,21.80
2022-10-03T03:11:33.154Z,21.80
2022-10-03T03:14:20.748Z,21.60
2022-10-03T03:17:26.309Z,21.70
2022-10-03T03:19:57.605Z,21.60
2022-10-03T03:22:44.234Z,21.50
2022-10-03T03:25:43.233Z,21.40
2022-10-03T03:28:36.358Z,21.40
2022-10-03T03:31:15.547Z,21.30
2022-10-03T03:34:01.630Z,21.30
2022-10-03T03:36:42.535Z,21.30
2022-10-03T03:39:30.988Z,21.30
2022-10-03T03:42:08.680Z,21.30
2022-10-03T03:44:48.463Z,21.20
2022-10-03T03:47:37.273Z,21.20
2022-10-03T03:50:08.661Z,21.20
2022-10-03T03:52:43.415Z,21.20
2022-10-03T03:55:42.417Z,21.10
2022-10-03T03:58:51.474Z,21.10
2022-10-03T04:01:39.779Z,21.20
2022-10-03T04:04:30.126Z,21.30
2022-10-03T04:07:24.268Z,21.30
2022-10-03T04:10:15.943Z,21.30
2022-10-03T04:13:10.763Z,21.40
2022-10-03T04:16:00.542Z,21.40
2022-10-03T04:19:02.307Z,21.40
2022-10-03T04:21:30.705Z,21.30
2022-10-03T04:24:21.595Z,21.30
2022-10-03T04:27:08.609Z,21.40
2022-10-03T04:30:18.620Z,21.40
2022-10-03T04:33:12.036Z,21.30
2022-10-03T04:36:14.991Z,21.30
2022-10-03T04:39:03.959Z,21.20
2022-10-03T04:42:04.901Z,21.00
2022-10-03T04:44:51.444Z,20.90
2022-10-03T04:47:28.273Z,20.90
2022-10-03T04:50:11.150Z,20.90
2022-10-03T04:52:42.547Z,20.90
2022-10-03T04:55:36.357Z,20.90
2022-10-03T04:58:23.056Z,20.80
2022-10-03T05:01:17.184Z,20.80
2022-10-03T05:04:00.721Z,20.60
2022-10-03T05:06:37.054Z,20.60
2022-10-03T05:09:39.242Z,20.50
2022-10-03T05:12:15.227Z,20.50
2022-10-03T05:15:16.188Z,20.40
2022-10-03T05:17:44.584Z,20.40
2022-10-03T05:20:24.754Z,20.30
2022-10-03T05:23:25.282Z,20.30
2022-10-03T05:26:45.981Z,20.30
2022-10-03T05:29:28.708Z,20.20
2022-10-03T05:32:12.276Z,20.10
2022-10-03T05:35:22.590Z,20.00
2022-10-03T05:38:01.209Z,19.90
2022-10-03T05:40:37.496Z,19.90
2022-10-03T05:43:26.605Z,19.80
2022-10-03T05:46:32.437Z,19.70
2022-10-03T05:49:09.822Z,19.70
2022-10-03T05:51:44.103Z,19.70
2022-10-03T05:54:31.037Z,19.60
2022-10-03T05:57:24.434Z,19.60
2022-10-03T06:00:12.865Z,19.50
2022-10-03T06:03:18.061Z,19.40
2022-10-03T06:06:04.409Z,19.50
2022-10-03T06:08:49.307Z,19.40
2022-10-03T06:11:32.921Z,19.40
2022-10-03T06:14:19.778Z,19.40
2022-10-03T06:17:03.713Z,19.40
2022-10-03T06:19:44.966Z,19.10
2022-10-03T06:22:41.010Z,19.20
2022-10-03T06:25:45.002Z,19.10
2022-10-03T06:28:37.763Z,19.10
2022-10-03T06:31:15.112Z,19.10
2022-10-03T06:34:09.080Z,18.90
2022-10-03T06:36:46.665Z,18.90
2022-10-03T06:39:36.020Z,18.90
2022-10-03T06:42:32.174Z,18.80
2022-10-03T06:45:38.672Z,18.70
2022-10-03T06:48:36.141Z,18.70
2022-10-03T06:51:44.358Z,18.60
2022-10-03T06:54:33.242Z,18.60
2022-10-03T06:57:43.126Z,18.60
2022-10-03T07:00:17.668Z,18.50
2022-10-03T07:03:04.159Z,18.50
2022-10-03T07:06:01.477Z,18.40
2022-10-03T07:09:02.665Z,18.40
2022-10-03T07:11:44.983Z,18.40
2022-10-03T07:14:44.417Z,18.40
2022-10-03T07:17:39.899Z,18.40
2022-10-03T07:20:19.003Z,18.20
2022-10-03T07:23:46.836Z,18.10
2022-10-03T07:26:33.453Z,18.00
2022-10-03T07:29:21.061Z,17.90
2022-10-03T07:31:49.913Z,17.80
2022-10-03T07:34:47.233Z,17.80
2022-10-03T07:38:08.898Z,17.70
2022-10-03T07:41:13.765Z,17.60
2022-10-03T07:44:00.605Z,17.60
2022-10-03T07:47:00.750Z,17.50
2022-10-03T07:49:44.453Z,17.50
2022-10-03T07:52:41.179Z,17.40
2022-10-03T07:55:32.661Z,17.30
2022-10-03T07:58:35.619Z,17.30
2022-10-03T08:01:10.898Z,17.30
2022-10-03T08:03:57.935Z,17.30
2022-10-03T08:06:40.891Z,17.20
2022-10-03T08:09:35.190Z,17.20
2022-10-03T08:12:22.991Z,17.10
2022-10-03T08:15:05.743Z,17.10
2022-10-03T08:18:02.291Z,17.00
2022-10-03T08:21:05.159Z,17.00
2022-10-03T08:23:40.456Z,16.90
2022-10-03T08:26:29.512Z,16.80
2022-10-03T08:29:16.408Z,16.80
2022-10-03T08:32:15.924Z,16.80
2022-10-03T08:35:09.022Z,16.60
2022-10-03T08:37:49.017Z,16.50
2022-10-03T08:40:42.518Z,16.50
2022-10-03T08:43:47.655Z,16.60
2022-10-03T08:46:43.093Z,16.60
2022-10-03T08:49:49.400Z,16.60
2022-10-03T08:52:36.229Z,16.60
2022-10-03T08:55:05.827Z,16.50
2022-10-03T08:58:11.187Z,16.30
2022-10-03T09:01:04.154Z,16.10
2022-10-03T09:04:10.669Z,16.10
2022-10-03T09:07:18.642Z,15.90
2022-10-03T09:10:08.042Z,16.00
2022-10-03T09:13:04.349Z,16.10
2022-10-03T09:16:08.043Z,15.90
2022-10-03T09:19:05.056Z,15.60
2022-10-03T09:21:56.496Z,15.70
2022-10-03T09:24:33.814Z,15.60
2022-10-03T09:27:05.290Z,15.50
2022-10-03T09:29:45.961Z,15.40
2022-10-03T09:32:46.642Z,15.40
2022-10-03T09:35:48.696Z,15.40
2022-10-03T09:38:38.535Z,15.30
2022-10-03T09:41:38.893Z,15.30
2022-10-03T09:44:22.452Z,14.90
2022-10-03T09:47:24.361Z,15.00
2022-10-03T09:50:10.308Z,14.80
2022-10-03T09:53:05.757Z,14.70
2022-10-03T09:56:09.834Z,14.80
2022-10-03T09:59:06.225Z,14.70
2022-10-03T10:02:13.783Z,14.80
2022-10-03T10:05:00.657Z,14.70
2022-10-03T10:08:10.943Z,14.70
2022-10-03T10:11:14.652Z,14.70
2022-10-03T10:14:22.698Z,14.80
2022-10-03T10:17:29.089Z,14.80
2022-10-03T10:20:13.205Z,14.70
2022-10-03T10:23:19.806Z,14.70
2022-10-03T10:26:19.733Z,14.70
2022-10-03T10:29:29.323Z,14.80
2022-10-03T10:32:20.466Z,14.80
2022-10-03T10:35:08.095Z,14.60
2022-10-03T10:38:16.166Z,14.60
2022-10-03T10:40:44.680Z,14.60
2022-10-03T10:43:40.218Z,14.40
2022-10-03T10:46:28.289Z,14.40
2022-10-03T10:49:11.920Z,14.20
2022-10-03T10:52:12.693Z,14.40
2022-10-03T10:54:53.163Z,14.40
2022-10-03T10:57:57.785Z,14.40
2022-10-03T11:00:59.313Z,14.40
2022-10-03T11:04:18.765Z,14.40
2022-10-03T11:07:12.859Z,14.20
2022-10-03T11:10:33.475Z,14.20
2022-10-03T11:13:42.043Z,14.30
2022-10-03T11:16:36.106Z,14.20
2022-10-03T11:19:32.895Z,14.30
2022-10-03T11:22:19.944Z,14.30
2022-10-03T11:25:20.559Z,14.30
2022-10-03T11:28:07.148Z,14.30
2022-10-03T11:30:50.835Z,14.30
2022-10-03T11:33:43.761Z,14.20
2022-10-03T11:36:12.082Z,14.00
2022-10-03T11:38:56.459Z,13.90
2022-10-03T11:41:43.307Z,13.90
2022-10-03T11:44:27.642Z,14.00
2022-10-03T11:47:14.613Z,13.80
2022-10-03T11:50:19.837Z,13.80
2022-10-03T11:52:57.424Z,13.70
2022-10-03T11:55:54.927Z,13.60
2022-10-03T11:58:26.376Z,13.50
2022-10-03T12:01:27.013Z,13.50
2022-10-03T12:04:03.838Z,13.40
2022-10-03T12:07:23.880Z,13.40
2022-10-03T12:10:02.104Z,13.50
2022-10-03T12:12:46.948Z,13.50
2022-10-03T12:15:35.230Z,13.60
2022-10-03T12:18:12.337Z,13.60
2022-10-03T12:20:56.725Z,13.70
2022-10-03T12:24:06.172Z,13.80
2022-10-03T12:26:38.342Z,13.70
2022-10-03T12:29:11.427Z,13.50
2022-10-03T12:32:08.848Z,13.50
2022-10-03T12:34:57.385Z,13.40
2022-10-03T12:37:34.918Z,13.40
2022-10-03T12:40:13.437Z,13.30
2022-10-03T12:43:25.213Z,13.20
2022-10-03T12:46:02.275Z,13.10
2022-10-03T12:48:57.051Z,13.00
2022-10-03T12:51:40.752Z,13.10
2022-10-03T12:54:30.766Z,13.00
2022-10-03T12:57:25.850Z,13.10
2022-10-03T13:00:22.490Z,13.10
2022-10-03T13:03:23.641Z,13.10
2022-10-03T13:05:56.518Z,13.20
2022-10-03T13:08:38.233Z,13.20
2022-10-03T13:11:36.996Z,13.30
2022-10-03T13:14:30.250Z,13.40
2022-10-03T13:17:37.053Z,13.50
2022-10-03T13:20:30.778Z,13.60
2022-10-03T13:23:31.556Z,13.70
2022-10-03T13:26:18.158Z,13.70
2022-10-03T13:28:49.909Z,13.70
2022-10-03T13:31:27.857Z,13.80
2022-10-03T13:34:01.421Z,13.70
2022-10-03T13:37:10.658Z,13.70
2022-10-03T13:40:08.724Z,13.80
2022-10-03T13:42:54.291Z,13.90
2022-10-03T13:45:29.194Z,13.90
2022-10-03T13:48:12.469Z,14.00
2022-10-03T13:50:56.130Z,14.10
2022-10-03T13:53:44.158Z,14.00
2022-10-03T13:56:45.386Z,14.00
2022-10-03T13:59:43.057Z,14.00
2022-10-03T14:02:11.447Z,14.10
2022-10-03T14:04:54.155Z,14.10
2022-10-03T14:07:23.411Z,14.20
2022-10-03T14:10:11.307Z,14.20
2022-10-03T14:12:56.117Z,14.10
2022-10-03T14:15:51.495Z,14.00
2022-10-03T14:18:54.458Z,13.90
2022-10-03T14:21:58.145Z,13.90
2022-10-03T14:24:40.134Z,14.10
2022-10-03T14:27:14.429Z,13.90
2022-10-03T14:30:14.434Z,13.90
2022-10-03T14:33:01.643Z,13.70
2022-10-03T14:35:52.954Z,13.90
2022-10-03T14:39:04.379Z,13.90
2022-10-03T14:41:44.621Z,14.10
2022-10-03T14:44:39.183Z,14.10
2022-10-03T14:47:14.351Z,14.20
2022-10-03T14:49:59.274Z,14.00
2022-10-03T14:52:46.877Z,13.90
2022-10-03T14:55:29.990Z,14.00
2022-10-03T14:58:33.215Z,14.10
2022-10-03T15:01:13.274Z,14.20
2022-10-03T15:04:04.906Z,14.30
2022-10-03T15:06:40.910Z,14.40
2022-10-03T15:09:17.710Z,14.50
2022-10-03T15:11:51.231Z,14.50
2022-10-03T15:14:21.278Z,14.60
2022-10-03T15:16:55.740Z,14.60
2022-10-03T15:19:40.124Z,14.70
2022-10-03T15:22:34.691Z,14.70
2022-10-03T15:25:18.696Z,14.70
2022-10-03T15:27:51.525Z,14.90
2022-10-03T15:30:35.409Z,14.70
2022-10-03T15:33:30.430Z,14.90
2022-10-03T15:36:13.599Z,15.10
2022-10-03T15:38:45.488Z,15.10
2022-10-03T15:41:16.998Z,15.10
2022-10-03T15:43:51.737Z,15.30
2022-10-03T15:47:02.461Z,15.00
2022-10-03T15:50:01.272Z,15.10
2022-10-03T15:52:45.646Z,15.10
2022-10-03T15:55:28.029Z,15.30
2022-10-03T15:58:09.741Z,15.40
2022-10-03T16:00:38.893Z,15.10
2022-10-03T16:03:23.894Z,14.80
2022-10-03T16:06:11.197Z,15.00
2022-10-03T16:08:52.175Z,15.30
2022-10-03T16:11:26.386Z,15.30
2022-10-03T16:14:30.863Z,15.60
2022-10-03T16:17:02.755Z,15.60
2022-10-03T16:19:40.241Z,15.80
2022-10-03T16:22:08.648Z,16.10
2022-10-03T16:24:58.272Z,16.40
2022-10-03T16:27:29.607Z,16.50
2022-10-03T16:30:10.222Z,16.20
2022-10-03T16:32:53.041Z,16.40
2022-10-03T16:35:47.071Z,16.50
2022-10-03T16:38:40.170Z,16.40
2022-10-03T16:41:22.029Z,16.30
2022-10-03T16:44:06.011Z,16.30
2022-10-03T16:46:39.614Z,16.40
2022-10-03T16:49:49.060Z,16.60
2022-10-03T16:52:21.390Z,16.80
2022-10-03T16:54:58.479Z,17.20
2022-10-03T16:57:56.445Z,17.40
2022-10-03T17:00:37.207Z,17.30
2022-10-03T17:03:17.008Z,17.60
2022-10-03T17:05:48.142Z,17.90
2022-10-03T17:08:40.864Z,17.80
2022-10-03T17:11:10.261Z,18.10
2022-10-03T17:13:47.822Z,18.20
2022-10-03T17:16:45.036Z,17.90
2022-10-03T17:19:35.866Z,17.70
2022-10-03T17:22:34.200Z,18.00
2022-10-03T17:25:37.492Z,17.50
2022-10-03T17:28:12.639Z,17.10
2022-10-03T17:30:52.496Z,17.00
2022-10-03T17:33:47.378Z,17.20
2022-10-03T17:36:41.087Z,17.10
2022-10-03T17:39:39.032Z,17.00
2022-10-03T17:42:42.912Z,16.90
2022-10-03T17:45:34.570Z,17.10
2022-10-03T17:48:23.906Z,17.40
2022-10-03T17:51:21.293Z,17.60
2022-10-03T17:53:57.493Z,17.90
2022-10-03T17:56:30.507Z,18.20
2022-10-03T17:59:13.346Z,18.20
2022-10-03T18:01:46.144Z,18.10
2022-10-03T18:04:29.814Z,18.20
2022-10-03T18:07:20.480Z,18.20
2022-10-03T18:09:51.129Z,18.00
2022-10-03T18:12:39.324Z,18.10
2022-10-03T18:15:23.769Z,18.30
2022-10-03T18:18:15.121Z,18.50
2022-10-03T18:20:52.028Z,18.70
2022-10-03T18:23:53.127Z,18.70
2022-10-03T18:26:35.080Z,18.90
2022-10-03T18:29:24.521Z,18.90
2022-10-03T18:32:26.065Z,18.90
2022-10-03T18:35:16.103Z,19.00
2022-10-03T18:37:47.153Z,18.70
2022-10-03T18:40:21.952Z,18.80
2022-10-03T18:42:51.105Z,19.10
2022-10-03T18:45:24.946Z,19.20
2022-10-03T18:47:57.099Z,19.00
2022-10-03T18:51:06.211Z,19.00
2022-10-03T18:53:38.293Z,19.20
2022-10-03T18:56:18.681Z,19.30
2022-10-03T18:59:14.868Z,19.30
2022-10-03T19:01:55.424Z,19.50
2022-10-03T19:04:29.812Z,19.70
2022-10-03T19:06:59.769Z,19.40
2022-10-03T19:09:39.771Z,19.50
2022-10-03T19:12:25.410Z,19.60
2022-10-03T19:15:19.899Z,19.80
2022-10-03T19:18:06.827Z,19.80
2022-10-03T19:20:47.650Z,19.80
2022-10-03T19:23:28.992Z,20.00
2022-10-03T19:26:01.692Z,20.10
2022-10-03T19:28:49.634Z,20.30
2022-10-03T19:31:34.624Z,20.30
2022-10-03T19:34:26.464Z,20.60
2022-10-03T19:36:58.315Z,20.70
2022-10-03T19:39:29.700Z,20.80
2022-10-03T19:42:19.378Z,20.90
2022-10-03T19:44:47.894Z,20.70
2022-10-03T19:47:24.811Z,20.80
2022-10-03T19:50:02.396Z,21.00
2022-10-03T19:52:33.449Z,21.20
2022-10-03T19:55:03.589Z,21.20
2022-10-03T19:57:43.520Z,21.30
2022-10-03T20:00:21.047Z,21.40
2022-10-03T20:03:07.305Z,21.40
2022-10-03T20:05:55.845Z,21.40
2022-10-03T20:08:46.825Z,21.60
2022-10-03T20:11:21.105Z,21.70
2022-10-03T20:13:51.257Z,21.90
2022-10-03T20:16:25.683Z,22.00
2022-10-03T20:18:59.293Z,22.00
2022-10-03T20:21:29.886Z,22.10
2022-10-03T20:23:59.443Z,22.00
2022-10-03T20:26:37.373Z,22.10
2022-10-03T20:29:27.443Z,22.20
2022-10-03T20:32:06.474Z,22.20
2022-10-03T20:34:37.709Z,22.20
2022-10-03T20:37:36.594Z,22.40
2022-10-03T20:40:31.885Z,22.40
2022-10-03T20:43:28.554Z,22.50
2022-10-03T20:46:06.146Z,22.60
2022-10-03T20:48:38.707Z,22.60
2022-10-03T20:51:07.276Z,22.60
2022-10-03T20:53:35.706Z,22.80
2022-10-03T20:56:16.027Z,23.00
2022-10-03T20:58:52.561Z,23.00
2022-10-03T21:01:26.459Z,23.10
2022-10-03T21:04:17.051Z,23.10
2022-10-03T21:07:05.301Z,23.10
2022-10-03T21:10:38.497Z,23.20
2022-10-03T21:13:15.237Z,23.20
2022-10-03T21:15:58.550Z,23.20
2022-10-03T21:18:26.949Z,23.20
2022-10-03T21:21:23.100Z,23.30
2022-10-03T21:23:57.098Z,23.40
2022-10-03T21:26:42.313Z,23.50
2022-10-03T21:29:29.611Z,23.60
2022-10-03T21:32:28.893Z,23.70
2022-10-03T21:35:15.788Z,23.90
2022-10-03T21:37:51.917Z,23.90
2022-10-03T21:40:36.923Z,23.90
2022-10-03T21:43:23.205Z,23.90
2022-10-03T21:45:54.976Z,24.00
2022-10-03T21:48:29.483Z,24.00
2022-10-03T21:51:13.228Z,24.10
2022-10-03T21:54:34.705Z,24.20
2022-10-03T21:57:36.921Z,24.20
2022-10-03T22:00:26.491Z,24.30
2022-10-03T22:03:00.403Z,24.30
2022-10-03T22:05:28.731Z,24.40
2022-10-03T22:07:57.695Z,24.50
2022-10-03T22:10:37.142Z,24.40
2022-10-03T22:13:10.643Z,24.50
2022-10-03T22:15:56.776Z,24.60
2022-10-03T22:18:26.703Z,24.60
2022-10-03T22:21:05.685Z,24.80
2022-10-03T22:23:39.432Z,24.80
2022-10-03T22:26:19.352Z,24.90
2022-10-03T22:29:20.665Z,24.90
2022-10-03T22:32:07.877Z,25.00
2022-10-03T22:34:53.090Z,25.00
2022-10-03T22:37:22.387Z,24.90
2022-10-03T22:39:51.877Z,24.90
2022-10-03T22:42:21.347Z,25.00
2022-10-03T22:44:52.473Z,25.10
2022-10-03T22:47:27.405Z,25.10
2022-10-03T22:50:01.698Z,25.10
2022-10-03T22:52:36.883Z,25.10
2022-10-03T22:55:09.628Z,25.20
2022-10-03T22:57:40.308Z,25.10
2022-10-03T23:00:30.653Z,25.10
2022-10-03T23:03:20.674Z,25.20
2022-10-03T23:06:13.344Z,25.10
2022-10-03T23:08:44.698Z,25.20
2022-10-03T23:11:29.034Z,25.30
2022-10-03T23:14:02.218Z,25.40
2022-10-03T23:16:48.891Z,25.40
2022-10-03T23:19:50.014Z,25.50
2022-10-03T23:22:25.177Z,25.50
2022-10-03T23:25:07.494Z,25.50
2022-10-03T23:27:56.560Z,25.50
2022-10-03T23:30:29.785Z,25.60
2022-10-03T23:33:01.743Z,25.60
2022-10-03T23:35:32.927Z,25.60
2022-10-03T23:38:02.700Z,25.50
2022-10-03T23:40:43.756Z,25.60
2022-10-03T23:43:40.452Z,25.60
2022-10-03T23:46:21.156Z,25.60
2022-10-03T23:48:54.498Z,25.50
2022-10-03T23:51:32.855Z,25.60
2022-10-03T23:54:05.123Z,25.60
2022-10-03T23:56:35.702Z,25.60
2022-10-03T23:59:04.039Z,25.60
